Time,TemperatureF,DewpointF,PressureIn,WindDirection,WindDirectionDegrees,WindSpeedMPH,WindSpeedGustMPH,Humidity,HourlyPrecipIn,Conditions,Clouds,dailyrainin,SoftwareType,DateUTC
2013-10-15 00:12:00,43.0,29.0,-100.00,NW,315,6.0,7.0,57,-99.99,,,-99.99,,2013-10-15 07:12:00,
2013-10-15 01:12:00,42.0,29.0,-100.00,NNW,330,9.0,10.0,59,-99.99,,,-99.99,,2013-10-15 08:12:00,
2013-10-15 02:12:00,42.0,29.0,-100.00,North,350,6.0,9.0,59,-99.99,,,-99.99,,2013-10-15 09:12:00,
2013-10-15 03:12:00,35.0,28.0,-100.00,SE,145,3.0,3.0,75,-99.99,,,-99.99,,2013-10-15 10:12:00,
2013-10-15 04:11:00,34.0,28.0,-100.00,NNW,335,0.0,1.0,78,-99.99,,,-99.99,,2013-10-15 11:11:00,
2013-10-15 05:12:00,34.0,28.0,-100.00,SE,140,3.0,5.0,78,-99.99,,,-99.99,,2013-10-15 12:12:00,
2013-10-15 06:11:00,31.0,26.0,-100.00,North,360,3.0,5.0,81,-99.99,,,-99.99,,2013-10-15 13:11:00,
2013-10-15 07:12:00,32.0,27.0,-100.00,North,10,0.0,1.0,81,-99.99,,,-99.99,,2013-10-15 14:12:00,
2013-10-15 08:11:00,29.0,26.0,-100.00,NNW,330,2.0,2.0,88,-99.99,,,-99.99,,2013-10-15 15:11:00,
2013-10-15 09:12:00,32.0,28.0,-100.00,NW,305,0.0,1.0,84,-99.99,,,-99.99,,2013-10-15 16:12:00,
2013-10-15 10:12:00,43.0,34.0,-100.00,SSE,150,1.0,3.0,70,-99.99,,,-99.99,,2013-10-15 17:12:00,
2013-10-15 11:12:00,46.0,35.0,-100.00,SSE,155,2.0,5.0,65,-99.99,,,-99.99,,2013-10-15 18:12:00,
2013-10-15 12:11:00,52.0,34.0,-100.00,SE,135,5.0,6.0,50,-99.99,,,-99.99,,2013-10-15 19:11:00,
2013-10-15 13:12:00,55.0,33.0,-100.00,SSE,150,3.0,5.0,43,-99.99,,,-99.99,,2013-10-15 20:12:00,
2013-10-15 14:12:00,60.0,33.0,-100.00,ENE,65,3.0,6.0,36,-99.99,,,-99.99,,2013-10-15 21:12:00,
2013-10-15 15:13:00,62.0,33.0,-100.00,East,100,6.0,7.0,33,-99.99,,,-99.99,,2013-10-15 22:13:00,
2013-10-15 16:12:00,63.0,33.0,-100.00,SE,140,6.0,9.0,32,-99.99,,,-99.99,,2013-10-15 23:12:00,
2013-10-15 17:12:00,63.0,32.0,-100.00,SSE,150,7.0,12.0,31,-99.99,,,-99.99,,2013-10-16 00:12:00,
2013-10-15 18:11:00,60.0,31.0,-100.00,SSE,155,7.0,10.0,33,-99.99,,,-99.99,,2013-10-16 01:11:00,
2013-10-15 19:12:00,54.0,32.0,-100.00,SE,130,9.0,10.0,42,-99.99,,,-99.99,,2013-10-16 02:12:00,
2013-10-15 20:11:00,49.0,32.0,-100.00,SE,135,5.0,6.0,51,-99.99,,,-99.99,,2013-10-16 03:11:00,
2013-10-15 21:14:00,49.0,31.0,-100.00,WNW,295,2.0,3.0,49,-99.99,,,-99.99,,2013-10-16 04:14:00,
2013-10-15 22:13:00,46.0,31.0,-100.00,NW,320,3.0,6.0,55,-99.99,,,-99.99,,2013-10-16 05:13:00,
2013-10-15 23:12:00,45.0,32.0,-100.00,WNW,300,6.0,6.0,60,-99.99,,,-99.99,,2013-10-16 06:12:00,